| time (UTC) | temp C | wind direction | speed KPH | gust KPH | rain 1hr cm | rain 24hr cm | rain mn cm | humidity % | barometer mb |
| 20260505083815 | 13 | 3 | 20.9 | 25.7 | 0.00 | 0.00 | 0.03 | 7 | 1008.0 |
| 20260505083313 | 13 | 8 | 25.7 | 37.0 | 0.00 | 0.00 | 0.03 | 7 | 1008.0 |
| 20260505082813 | 13 | 23 | 19.3 | 27.4 | 0.00 | 0.00 | 0.03 | 7 | 1008.0 |
| 20260505082317 | 13 | 24 | 14.5 | 19.3 | 0.00 | 0.00 | 0.03 | 7 | 1008.0 |
| 20260505081813 | 13 | 29 | 19.3 | 24.1 | 0.00 | 0.00 | 0.03 | 7 | 1008.0 |
| 20260505081315 | 13 | 7 | 17.7 | 24.1 | 0.00 | 0.00 | 0.03 | 7 | 1008.0 |
| 20260505080813 | 13 | 12 | 12.9 | 17.7 | 0.00 | 0.00 | 0.03 | 7 | 1009.0 |
| 20260505080313 | 13 | 0 | 14.5 | 22.5 | 0.00 | 0.00 | 0.03 | 7 | 1008.0 |
| 20260505075815 | 13 | 14 | 16.1 | 20.9 | 0.00 | 0.00 | 0.03 | 7 | 1009.0 |
| 20260505075313 | 13 | 7 | 14.5 | 17.7 | 0.00 | 0.00 | 0.03 | 7 | 1009.0 |
| 20260505074816 | 13 | 7 | 12.9 | 20.9 | 0.00 | 0.00 | 0.03 | 7 | 1009.0 |
| 20260505074313 | 13 | 38 | 8.0 | 12.9 | 0.00 | 0.00 | 0.03 | 7 | 1009.0 |
| 20260505073813 | 13 | 15 | 12.9 | 17.7 | 0.00 | 0.00 | 0.03 | 7 | 1009.0 |
| 20260505073314 | 13 | 12 | 17.7 | 22.5 | 0.00 | 0.00 | 0.03 | 7 | 1009.0 |
| 20260505072813 | 13 | 12 | 11.3 | 17.7 | 0.00 | 0.00 | 0.03 | 7 | 1009.0 |
| 20260505072313 | 13 | 12 | 19.3 | 25.7 | 0.00 | 0.00 | 0.03 | 7 | 1009.0 |
| 20260505071813 | 13 | 18 | 17.7 | 22.5 | 0.00 | 0.00 | 0.03 | 7 | 1009.0 |
| 20260505071316 | 13 | 5 | 14.5 | 16.1 | 0.00 | 0.00 | 0.03 | 7 | 1009.0 |
| 20260505070815 | 13 | 6 | 20.9 | 25.7 | 0.00 | 0.00 | 0.03 | 7 | 1009.0 |
| 20260505070313 | 14 | 28 | 14.5 | 20.9 | 0.00 | 0.00 | 0.03 | 7 | 1009.0 |
| 20260505065814 | 14 | 22 | 20.9 | 30.6 | 0.00 | 0.00 | 0.03 | 7 | 1009.0 |
| 20260505065313 | 14 | 24 | 20.9 | 30.6 | 0.00 | 0.00 | 0.03 | 7 | 1009.0 |
| 20260505064815 | 14 | 10 | 20.9 | 25.7 | 0.00 | 0.00 | 0.03 | 7 | 1009.0 |
| 20260505064314 | 14 | 14 | 24.1 | 30.6 | 0.00 | 0.00 | 0.03 | 7 | 1009.0 |
| 20260505063813 | 14 | 10 | 22.5 | 25.7 | 0.00 | 0.00 | 0.03 | 7 | 1009.0 |
| 20260505063314 | 14 | 7 | 20.9 | 24.1 | 0.00 | 0.00 | 0.03 | 7 | 1009.0 |
| 20260505062815 | 14 | 7 | 20.9 | 30.6 | 0.00 | 0.00 | 0.03 | 7 | 1009.0 |
| 20260505062314 | 14 | 5 | 22.5 | 30.6 | 0.00 | 0.00 | 0.03 | 7 | 1008.0 |
| 20260505061813 | 14 | 10 | 30.6 | 40.2 | 0.03 | 0.00 | 0.03 | 7 | 1008.0 |
| 20260505061313 | 14 | 7 | 29.0 | 38.6 | 0.00 | 0.00 | 0.00 | 7 | 1008.0 |
| 20260505060333 | 15 | 7 | 30.6 | 38.6 | 0.00 | 0.00 | 0.03 | 7 | 1008.0 |
| 20260505055814 | 15 | 16 | 33.8 | 43.5 | 0.00 | 0.00 | 0.03 | 7 | 1008.0 |
| 20260505055313 | 15 | 23 | 32.2 | 43.5 | 0.00 | 0.00 | 0.03 | 7 | 1008.0 |
| 20260505054814 | 15 | 36 | 24.1 | 32.2 | 0.10 | 0.00 | 0.00 | 7 | 1008.0 |
| 20260505054313 | 15 | 22 | 16.1 | 20.9 | 0.00 | 0.00 | 0.00 | 7 | 1007.0 |
| 20260505053813 | 15 | 21 | 20.9 | 35.4 | 0.00 | 0.00 | 0.00 | 7 | 1007.0 |
| 20260505053315 | 16 | 7 | 29.0 | 40.2 | 0.00 | 0.00 | 0.00 | 7 | 1007.0 |
| 20260505052813 | 16 | 355 | 14.5 | 24.1 | 0.00 | 0.00 | 0.00 | 7 | 1007.0 |
| 20260505052313 | 16 | 304 | 20.9 | 27.4 | 0.00 | 0.00 | 0.00 | 7 | 1007.0 |
| 20260505051813 | 16 | 283 | 22.5 | 30.6 | 0.00 | 0.00 | 0.03 | 7 | 1006.0 |
| 20260505051313 | 16 | 284 | 20.9 | 25.7 | 0.00 | 0.00 | 0.00 | 7 | 1007.0 |
| 20260505050815 | 17 | 284 | 22.5 | 29.0 | 0.00 | 0.00 | 0.00 | 7 | 1006.0 |
| 20260505050314 | 17 | 284 | 22.5 | 27.4 | 0.36 | 0.00 | 0.00 | 7 | 1006.0 |
| 20260505041313 | 19 | 282 | 20.9 | 27.4 | 0.00 | 0.00 | 0.00 | 7 | 1005.0 |
| 20260505040813 | 19 | 278 | 20.9 | 33.8 | 0.00 | 0.00 | 0.00 | 7 | 1006.0 |
| 20260505040314 | 20 | 283 | 24.1 | 30.6 | 0.00 | 0.00 | 0.00 | 7 | 1006.0 |
| 20260505035813 | 20 | 283 | 24.1 | 30.6 | 0.00 | 0.00 | 0.00 | 7 | 1006.0 |
| 20260505035314 | 20 | 282 | 25.7 | 29.0 | 0.00 | 0.00 | 0.00 | 7 | 1005.0 |
| 20260505034814 | 20 | 284 | 20.9 | 30.6 | 0.00 | 0.00 | 0.00 | 7 | 1005.0 |
| 20260505034313 | 20 | 308 | 17.7 | 30.6 | 0.00 | 0.00 | 0.00 | 7 | 1005.0 |
| 20260505033813 | 20 | 3 | 22.5 | 30.6 | 0.00 | 0.00 | 0.00 | 7 | 1005.0 |
| 20260505033314 | 21 | 336 | 19.3 | 27.4 | 0.00 | 0.00 | 0.00 | 7 | 1005.0 |
| 20260505032813 | 21 | 317 | 17.7 | 24.1 | 0.00 | 0.00 | 0.00 | 7 | 1005.0 |
| 20260505032313 | 21 | 318 | 14.5 | 19.3 | 0.00 | 0.00 | 0.00 | 7 | 1005.0 |
| 20260505031813 | 21 | 328 | 16.1 | 20.9 | 0.00 | 0.00 | 0.00 | 7 | 1005.0 |
| 20260505031314 | 21 | 347 | 16.1 | 24.1 | 0.00 | 0.00 | 0.00 | 7 | 1004.0 |
| 20260505030814 | 21 | 348 | 19.3 | 30.6 | 0.00 | 0.00 | 0.00 | 7 | 1004.0 |
| 20260505030313 | 22 | 348 | 16.1 | 20.9 | 0.00 | 0.00 | 0.00 | 7 | 1004.0 |
| 20260505025814 | 22 | 313 | 14.5 | 17.7 | 0.00 | 0.00 | 0.00 | 7 | 1004.0 |
| 20260505025313 | 22 | 356 | 12.9 | 19.3 | 0.00 | 0.00 | 0.00 | 7 | 1004.0 |
| 20260505024813 | 22 | 348 | 16.1 | 22.5 | 0.00 | 0.00 | 0.00 | 7 | 1004.0 |
| 20260505024315 | 22 | 348 | 14.5 | 17.7 | 0.00 | 0.00 | 0.00 | 7 | 1004.0 |
| 20260505023813 | 22 | 354 | 11.3 | 20.9 | 0.00 | 0.00 | 0.00 | 7 | 1004.0 |
| 20260505023313 | 22 | 3 | 25.7 | 30.6 | 0.00 | 0.00 | 0.00 | 7 | 1004.0 |
| 20260505022813 | 22 | 4 | 24.1 | 29.0 | 0.00 | 0.00 | 0.00 | 7 | 1004.0 |
| 20260505022313 | 22 | 4 | 24.1 | 30.6 | 0.00 | 0.00 | 0.00 | 7 | 1004.0 |
| 20260505021813 | 21 | 4 | 24.1 | 30.6 | 0.00 | 0.00 | 0.00 | 7 | 1003.0 |
| 20260505021313 | 21 | 5 | 24.1 | 32.2 | 0.00 | 0.00 | 0.00 | 7 | 1003.0 |
| 20260505020813 | 21 | 340 | 12.9 | 20.9 | 0.00 | 0.00 | 0.00 | 7 | 1003.0 |
| 20260505020313 | 22 | 350 | 8.0 | 12.9 | 0.00 | 0.00 | 0.00 | 7 | 1003.0 |
| 20260505015813 | 22 | 45 | 4.8 | 6.4 | 0.00 | 0.00 | 0.00 | 7 | 1003.0 |
| 20260505015313 | 23 | 232 | 3.2 | 4.8 | 0.00 | 0.00 | 0.00 | 7 | 1003.0 |
| 20260505014813 | 23 | 218 | 3.2 | 8.0 | 0.00 | 0.00 | 0.00 | 7 | 1002.0 |
| 20260505014314 | 23 | 192 | 3.2 | 4.8 | 0.00 | 0.00 | 0.00 | 7 | 1002.0 |
| 20260505013813 | 23 | 200 | 3.2 | 9.7 | 0.00 | 0.00 | 0.00 | 7 | 1002.0 |
| 20260505013313 | 23 | 182 | 3.2 | 4.8 | 0.00 | 0.00 | 0.00 | 7 | 1002.0 |
| 20260505012815 | 23 | 203 | 4.8 | 6.4 | 0.00 | 0.00 | 0.00 | 7 | 1002.0 |
| 20260505012313 | 23 | 224 | 6.4 | 14.5 | 0.00 | 0.00 | 0.00 | 7 | 1002.0 |
| 20260505011813 | 23 | 214 | 8.0 | 9.7 | 0.00 | 0.00 | 0.00 | 7 | 1002.0 |
| 20260505011313 | 23 | 208 | 8.0 | 9.7 | 0.00 | 0.00 | 0.00 | 7 | 1002.0 |
| 20260505010813 | 23 | 172 | 6.4 | 9.7 | 0.00 | 0.00 | 0.00 | 7 | 1002.0 |
| 20260505010313 | 23 | 179 | 6.4 | 8.0 | 0.00 | 0.00 | 0.00 | 7 | 1002.0 |
| 20260505005813 | 23 | 212 | 6.4 | 9.7 | 0.00 | 0.00 | 0.00 | 7 | 1002.0 |
| 20260505005314 | 24 | 215 | 8.0 | 12.9 | 0.00 | 0.00 | 0.00 | 7 | 1002.0 |
| 20260505004813 | 24 | 226 | 4.8 | 8.0 | 0.00 | 0.00 | 0.00 | 7 | 1002.0 |
| 20260505004313 | 24 | 256 | 4.8 | 8.0 | 0.00 | 0.00 | 0.00 | 7 | 1002.0 |
| 20260505003815 | 25 | 261 | 3.2 | 3.2 | 0.00 | 0.00 | 0.00 | 7 | 1002.0 |
| 20260505003313 | 25 | 242 | 3.2 | 6.4 | 0.00 | 0.00 | 0.00 | 7 | 1002.0 |
| 20260505002813 | 25 | 215 | 9.7 | 12.9 | 0.00 | 0.00 | 0.00 | 7 | 1002.0 |
| 20260505002313 | 25 | 208 | 12.9 | 14.5 | 0.00 | 0.00 | 0.00 | 7 | 1002.0 |
| 20260505001815 | 25 | 206 | 12.9 | 14.5 | 0.00 | 0.00 | 0.00 | 7 | 1002.0 |
| 20260505001316 | 25 | 212 | 12.9 | 16.1 | 0.00 | 0.00 | 0.00 | 7 | 1002.0 |
| 20260505000813 | 26 | 207 | 12.9 | 16.1 | 0.00 | 0.00 | 0.00 | 7 | 1002.0 |
| 20260505000314 | 26 | 209 | 14.5 | 16.1 | 0.00 | 0.00 | 0.00 | 7 | 1002.0 |
| 20260504235813 | 26 | 200 | 12.9 | 14.5 | 0.00 | 0.00 | 0.00 | 7 | 1002.0 |
| 20260504234845 | 26 | 208 | 11.3 | 16.1 | 0.00 | 0.00 | 0.00 | 7 | 1002.0 |
| 20260504234313 | 26 | 208 | 11.3 | 14.5 | 0.00 | 0.00 | 0.00 | 7 | 1002.0 |
| 20260504233813 | 26 | 205 | 11.3 | 14.5 | 0.00 | 0.00 | 0.00 | 7 | 1002.0 |
| 20260504233313 | 27 | 193 | 9.7 | 14.5 | 0.00 | 0.00 | 0.00 | 7 | 1002.0 |
| 20260504232813 | 27 | 208 | 11.3 | 16.1 | 0.00 | 0.00 | 0.00 | 7 | 1002.0 |
| 20260504232314 | 27 | 200 | 14.5 | 16.1 | 0.00 | 0.00 | 0.00 | 7 | 1002.0 |
| 20260504231815 | 27 | 194 | 12.9 | 17.7 | 0.00 | 0.00 | 0.00 | 7 | 1002.0 |
| 20260504231313 | 27 | 189 | 9.7 | 16.1 | 0.00 | 0.00 | 0.00 | 7 | 1002.0 |
| 20260504230813 | 27 | 204 | 9.7 | 14.5 | 0.00 | 0.00 | 0.00 | 7 | 1002.0 |
| 20260504230313 | 27 | 212 | 6.4 | 11.3 | 0.00 | 0.00 | 0.00 | 7 | 1002.0 |
| 20260504225817 | 27 | 202 | 8.0 | 9.7 | 0.00 | 0.00 | 0.00 | 7 | 1002.0 |
| 20260504225314 | 27 | 209 | 12.9 | 16.1 | 0.00 | 0.00 | 0.00 | 7 | 1002.0 |
| 20260504224815 | 27 | 210 | 11.3 | 14.5 | 0.00 | 0.00 | 0.00 | 7 | 1002.0 |
| 20260504224313 | 27 | 219 | 11.3 | 16.1 | 0.00 | 0.00 | 0.00 | 7 | 1002.0 |
| 20260504223813 | 27 | 208 | 12.9 | 17.7 | 0.00 | 0.00 | 0.00 | 7 | 1002.0 |
| 20260504223316 | 27 | 201 | 12.9 | 16.1 | 0.00 | 0.00 | 0.00 | 7 | 1002.0 |
| 20260504222813 | 27 | 196 | 16.1 | 20.9 | 0.00 | 0.00 | 0.00 | 7 | 1001.0 |
| 20260504222313 | 27 | 191 | 14.5 | 22.5 | 0.00 | 0.00 | 0.00 | 7 | 1001.0 |
| 20260504221814 | 27 | 193 | 17.7 | 22.5 | 0.00 | 0.00 | 0.00 | 7 | 1001.0 |
| 20260504221313 | 27 | 202 | 16.1 | 19.3 | 0.00 | 0.00 | 0.00 | 7 | 1001.0 |
| 20260504220813 | 27 | 194 | 17.7 | 25.7 | 0.00 | 0.00 | 0.00 | 7 | 1001.0 |
| 20260504220314 | 27 | 191 | 17.7 | 22.5 | 0.00 | 0.00 | 0.00 | 7 | 1001.0 |
| 20260504215813 | 27 | 208 | 16.1 | 24.1 | 0.00 | 0.00 | 0.00 | 7 | 1001.0 |
| 20260504215313 | 27 | 209 | 12.9 | 17.7 | 0.00 | 0.00 | 0.00 | 7 | 1001.0 |
| 20260504214813 | 27 | 210 | 12.9 | 14.5 | 0.00 | 0.00 | 0.00 | 7 | 1002.0 |
| 20260504214314 | 27 | 199 | 17.7 | 24.1 | 0.00 | 0.00 | 0.00 | 7 | 1002.0 |
| 20260504213814 | 27 | 202 | 19.3 | 22.5 | 0.00 | 0.00 | 0.00 | 7 | 1002.0 |
| 20260504213314 | 28 | 192 | 17.7 | 22.5 | 0.00 | 0.00 | 0.00 | 7 | 1002.0 |
| 20260504212813 | 28 | 183 | 17.7 | 22.5 | 0.00 | 0.00 | 0.00 | 7 | 1002.0 |
| 20260504212314 | 28 | 221 | 14.5 | 24.1 | 0.00 | 0.00 | 0.00 | 7 | 1002.0 |
| 20260504211815 | 28 | 217 | 11.3 | 17.7 | 0.00 | 0.00 | 0.00 | 7 | 1002.0 |
| 20260504211318 | 28 | 209 | 16.1 | 19.3 | 0.00 | 0.00 | 0.00 | 7 | 1002.0 |
| 20260504210813 | 28 | 222 | 9.7 | 14.5 | 0.00 | 0.00 | 0.00 | 7 | 1002.0 |
| 20260504210313 | 28 | 218 | 11.3 | 24.1 | 0.00 | 0.00 | 0.00 | 7 | 1002.0 |
| 20260504205816 | 28 | 237 | 4.8 | 8.0 | 0.00 | 0.00 | 0.00 | 7 | 1002.0 |
| 20260504205313 | 28 | 201 | 16.1 | 19.3 | 0.00 | 0.00 | 0.00 | 7 | 1002.0 |
| 20260504204815 | 28 | 215 | 11.3 | 14.5 | 0.00 | 0.00 | 0.00 | 7 | 1002.0 |
| 20260504204314 | 28 | 197 | 11.3 | 14.5 | 0.00 | 0.00 | 0.00 | 7 | 1002.0 |
| 20260504203813 | 28 | 200 | 12.9 | 16.1 | 0.00 | 0.00 | 0.00 | 7 | 1002.0 |
| 20260504203313 | 28 | 221 | 11.3 | 17.7 | 0.00 | 0.00 | 0.00 | 7 | 1002.0 |
| 20260504202815 | 28 | 208 | 9.7 | 12.9 | 0.00 | 0.00 | 0.00 | 7 | 1002.0 |
| 20260504202315 | 29 | 225 | 9.7 | 12.9 | 0.00 | 0.00 | 0.00 | 7 | 1002.0 |
| 20260504201814 | 29 | 217 | 3.2 | 6.4 | 0.00 | 0.00 | 0.00 | 7 | 1002.0 |
| 20260504201315 | 30 | 249 | 6.4 | 12.9 | 0.00 | 0.00 | 0.00 | 7 | 1002.0 |
| 20260504200816 | 29 | 273 | 4.8 | 8.0 | 0.00 | 0.00 | 0.00 | 7 | 1002.0 |
| 20260504200315 | 28 | 292 | 1.6 | 8.0 | 0.00 | 0.00 | 0.00 | 7 | 1002.0 |
| 20260504195813 | 28 | 204 | 14.5 | 17.7 | 0.00 | 0.00 | 0.00 | 7 | 1002.0 |
| 20260504195315 | 29 | 241 | 3.2 | 9.7 | 0.00 | 0.00 | 0.00 | 7 | 1002.0 |
| 20260504194814 | 29 | 240 | 8.0 | 16.1 | 0.00 | 0.00 | 0.00 | 7 | 1002.0 |
| 20260504194315 | 29 | 302 | 3.2 | 9.7 | 0.00 | 0.00 | 0.00 | 7 | 1002.0 |
| 20260504193815 | 29 | 200 | 6.4 | 12.9 | 0.00 | 0.00 | 0.00 | 7 | 1002.0 |
| 20260504193315 | 30 | 231 | 8.0 | 14.5 | 0.00 | 0.00 | 0.00 | 7 | 1002.0 |
| 20260504192813 | 29 | 207 | 4.8 | 8.0 | 0.00 | 0.00 | 0.00 | 7 | 1002.0 |
| 20260504192314 | 29 | 10 | 3.2 | 8.0 | 0.00 | 0.00 | 0.00 | 7 | 1003.0 |
| 20260504191815 | 29 | 173 | 3.2 | 4.8 | 0.00 | 0.00 | 0.00 | 7 | 1003.0 |
| 20260504191313 | 28 | 251 | 4.8 | 11.3 | 0.00 | 0.00 | 0.00 | 7 | 1003.0 |
| 20260504190814 | 28 | 162 | 9.7 | 12.9 | 0.00 | 0.00 | 0.00 | 7 | 1003.0 |
| 20260504190317 | 29 | 195 | 9.7 | 11.3 | 0.00 | 0.00 | 0.00 | 7 | 1003.0 |
| 20260504185814 | 28 | 166 | 3.2 | 4.8 | 0.00 | 0.00 | 0.00 | 7 | 1003.0 |
| 20260504185316 | 28 | 183 | 3.2 | 4.8 | 0.00 | 0.00 | 0.00 | 7 | 1003.0 |
| 20260504184813 | 28 | 162 | 11.3 | 14.5 | 0.00 | 0.00 | 0.00 | 7 | 1003.0 |
| 20260504184319 | 28 | 205 | 6.4 | 9.7 | 0.00 | 0.00 | 0.00 | 7 | 1003.0 |
| 20260504183815 | 28 | 238 | 3.2 | 6.4 | 0.00 | 0.00 | 0.00 | 7 | 1003.0 |
| 20260504183314 | 27 | 23 | 3.2 | 9.7 | 0.00 | 0.00 | 0.00 | 7 | 1003.0 |
| 20260504182816 | 27 | 230 | 8.0 | 14.5 | 0.00 | 0.00 | 0.00 | 7 | 1003.0 |
| 20260504182314 | 27 | 207 | 4.8 | 9.7 | 0.00 | 0.00 | 0.00 | 7 | 1003.0 |
| 20260504181813 | 27 | 284 | 4.8 | 14.5 | 0.00 | 0.00 | 0.00 | 7 | 1003.0 |
| 20260504181317 | 27 | 265 | 4.8 | 11.3 | 0.00 | 0.00 | 0.00 | 7 | 1003.0 |
| 20260504180814 | 27 | 203 | 9.7 | 14.5 | 0.00 | 0.00 | 0.00 | 7 | 1003.0 |
| 20260504180315 | 27 | 263 | 4.8 | 11.3 | 0.00 | 0.00 | 0.00 | 7 | 1003.0 |
| 20260504175814 | 27 | 219 | 9.7 | 14.5 | 0.00 | 0.00 | 0.00 | 7 | 1003.0 |
| 20260504175314 | 26 | 250 | 6.4 | 11.3 | 0.00 | 0.00 | 0.00 | 7 | 1003.0 |
| 20260504174815 | 26 | 323 | 3.2 | 8.0 | 0.00 | 0.00 | 0.00 | 7 | 1003.0 |
| 20260504174313 | 26 | 210 | 12.9 | 17.7 | 0.00 | 0.00 | 0.00 | 7 | 1003.0 |
| 20260504173815 | 25 | 210 | 11.3 | 16.1 | 0.00 | 0.00 | 0.00 | 7 | 1003.0 |
| 20260504173314 | 26 | 211 | 14.5 | 16.1 | 0.00 | 0.00 | 0.00 | 7 | 1003.0 |
| 20260504172814 | 26 | 227 | 9.7 | 16.1 | 0.00 | 0.00 | 0.00 | 7 | 1003.0 |
| 20260504172313 | 26 | 194 | 12.9 | 16.1 | 0.00 | 0.00 | 0.00 | 7 | 1003.0 |
| 20260504171815 | 26 | 242 | 4.8 | 14.5 | 0.00 | 0.00 | 0.00 | 7 | 1003.0 |
| 20260504171313 | 26 | 241 | 4.8 | 12.9 | 0.00 | 0.00 | 0.00 | 7 | 1003.0 |
| 20260504170817 | 26 | 259 | 6.4 | 14.5 | 0.00 | 0.00 | 0.00 | 7 | 1003.0 |
| 20260504170314 | 26 | 230 | 4.8 | 11.3 | 0.00 | 0.00 | 0.00 | 7 | 1003.0 |
| 20260504160316 | 24 | 186 | 4.8 | 11.3 | 0.00 | 0.00 | 0.00 | 7 | 1003.0 |
| 20260504150813 | 22 | 226 | 12.9 | 17.7 | 0.00 | 0.00 | 0.00 | 7 | 1003.0 |
| 20260504150313 | 22 | 226 | 12.9 | 19.3 | 0.00 | 0.00 | 0.00 | 7 | 1003.0 |
| 20260504141316 | 20 | 241 | 12.9 | 16.1 | 0.00 | 0.00 | 0.00 | 7 | 1004.0 |
| 20260504140814 | 20 | 253 | 11.3 | 17.7 | 0.00 | 0.00 | 0.00 | 7 | 1004.0 |
| 20260504140316 | 20 | 217 | 14.5 | 22.5 | 0.00 | 0.00 | 0.00 | 7 | 1004.0 |
| 20260504130814 | 17 | 208 | 8.0 | 12.9 | 0.00 | 0.00 | 0.00 | 7 | 1004.0 |
| 20260504130313 | 17 | 212 | 11.3 | 14.5 | 0.00 | 0.00 | 0.00 | 7 | 1004.0 |
| 20260504120316 | 15 | 181 | 9.7 | 9.7 | 0.00 | 0.00 | 0.00 | 7 | 1003.0 |
| 20260504110314 | 14 | 186 | 9.7 | 14.5 | 0.00 | 0.00 | 0.00 | 7 | 1003.0 |
| 20260504100315 | 15 | 172 | 12.9 | 12.9 | 0.00 | 0.00 | 0.00 | 7 | 1004.0 |